Time;durP1;ratioP1;P1;durP2;ratioP2;P2;SDS_P1;SDS_P2;PMS_P1;PMS_P2;Temp;Humidity;BMP_temperature;BMP_pressure;BME280_temperature;BME280_humidity;BME280_pressure;Samples;Min_cycle;Max_cycle;Signal;HPM_P1;HPM_P2
2023/03/02 00:02:25;;;;;;;;;49.00;41.75;;;;;;;;5073215;27;45583;-60
2023/03/02 00:04:52;;;;;;;;;47.25;41.25;;;;;;;;5072276;27;45563;-58
2023/03/02 00:07:19;;;;;;;;;55.50;42.75;;;;;;;;5072840;27;45496;-56
2023/03/02 00:09:45;;;;;;;;;30.50;26.75;;;;;;;;5072924;28;45441;-54
2023/03/02 00:12:10;;;;;;;;;57.00;46.75;;;;;;;;5072795;27;45571;-57
2023/03/02 00:14:36;;;;;;;;;53.50;43.25;;;;;;;;5072677;27;45477;-52
2023/03/02 00:17:02;;;;;;;;;54.00;44.25;;;;;;;;5072586;27;45585;-60
2023/03/02 00:19:27;;;;;;;;;49.00;42.00;;;;;;;;5072887;27;45569;-51
2023/03/02 00:21:52;;;;;;;;;53.50;45.50;;;;;;;;5072769;28;45685;-58
2023/03/02 00:24:17;;;;;;;;;50.25;42.25;;;;;;;;5072547;27;46085;-58
2023/03/02 00:26:43;;;;;;;;;54.50;43.00;;;;;;;;5072721;27;45625;-58
2023/03/02 00:29:08;;;;;;;;;53.75;43.25;;;;;;;;5072441;28;45553;-58
2023/03/02 00:31:33;;;;;;;;;52.00;44.00;;;;;;;;5072685;27;45580;-60
2023/03/02 00:33:58;;;;;;;;;49.00;42.25;;;;;;;;5072254;28;45351;-58
2023/03/02 00:36:24;;;;;;;;;48.25;42.50;;;;;;;;5072596;28;45399;-60
2023/03/02 00:38:51;;;;;;;;;51.00;42.25;;;;;;;;5072342;27;45518;-52
2023/03/02 00:41:16;;;;;;;;;50.25;40.75;;;;;;;;5072374;27;45584;-56
2023/03/02 00:43:41;;;;;;;;;49.00;41.50;;;;;;;;5054064;28;47264;-56
2023/03/02 00:46:07;;;;;;;;;45.50;40.00;;;;;;;;5072304;27;45554;-57
2023/03/02 00:48:32;;;;;;;;;54.25;42.00;;;;;;;;5072561;27;45488;-53
2023/03/02 00:50:59;;;;;;;;;46.00;39.75;;;;;;;;5072349;27;45503;-55
2023/03/02 00:53:24;;;;;;;;;51.25;42.00;;;;;;;;5074588;27;45571;-58
2023/03/02 00:55:53;;;;;;;;;48.00;42.50;;;;;;;;5065183;28;45518;-56
2023/03/02 00:58:20;;;;;;;;;52.25;42.00;;;;;;;;5072905;27;45550;-54
2023/03/02 01:00:45;;;;;;;;;47.00;40.00;;;;;;;;5076165;28;45403;-58
2023/03/02 01:03:10;;;;;;;;;52.75;42.50;;;;;;;;5075743;27;45853;-50
2023/03/02 01:05:36;;;;;;;;;54.00;43.75;;;;;;;;5075858;27;45544;-58
2023/03/02 01:08:01;;;;;;;;;47.25;43.00;;;;;;;;5075816;27;45739;-56
2023/03/02 01:10:26;;;;;;;;;55.75;43.50;;;;;;;;5075836;27;45571;-55
2023/03/02 01:12:51;;;;;;;;;46.00;41.25;;;;;;;;5075545;27;45405;-59
2023/03/02 01:15:17;;;;;;;;;45.25;39.75;;;;;;;;5075467;27;45426;-55
2023/03/02 01:17:42;;;;;;;;;47.25;40.25;;;;;;;;5075896;27;45592;-57
2023/03/02 01:20:10;;;;;;;;;55.50;44.75;;;;;;;;5075574;27;45406;-57
2023/03/02 01:22:35;;;;;;;;;49.75;42.25;;;;;;;;5075478;27;45924;-55
2023/03/02 01:25:02;;;;;;;;;47.25;40.75;;;;;;;;5075555;27;45426;-55
2023/03/02 01:27:28;;;;;;;;;57.00;44.50;;;;;;;;5075414;27;45489;-52
2023/03/02 01:29:53;;;;;;;;;54.00;42.50;;;;;;;;5075521;27;45698;-59
2023/03/02 01:32:18;;;;;;;;;45.50;38.75;;;;;;;;5075184;27;45855;-55
2023/03/02 01:34:43;;;;;;;;;52.25;43.25;;;;;;;;5075273;27;45503;-56
2023/03/02 01:37:09;;;;;;;;;50.25;42.00;;;;;;;;5075506;27;45469;-55
2023/03/02 01:39:34;;;;;;;;;46.25;39.75;;;;;;;;5075508;27;45529;-56
2023/03/02 01:41:59;;;;;;;;;45.00;40.25;;;;;;;;5057042;28;46316;-60
2023/03/02 01:44:43;;;;;;;;;53.25;44.00;;;;;;;;5075006;27;45815;-53
2023/03/02 01:47:20;;;;;;;;;52.50;44.25;;;;;;;;5075414;27;45499;-60
2023/03/02 01:49:48;;;;;;;;;52.25;43.00;;;;;;;;5075483;27;45539;-52
2023/03/02 01:52:14;;;;;;;;;48.00;42.00;;;;;;;;5056937;27;46435;-51
2023/03/02 01:54:40;;;;;;;;;53.50;45.75;;;;;;;;5074071;28;45493;-54
2023/03/02 01:57:06;;;;;;;;;45.75;40.50;;;;;;;;5061964;28;45568;-54
2023/03/02 01:59:32;;;;;;;;;59.50;46.75;;;;;;;;5075016;27;45572;-57
2023/03/02 02:02:00;;;;;;;;;51.00;42.00;;;;;;;;5074835;27;46841;-55
2023/03/02 02:04:27;;;;;;;;;51.00;41.25;;;;;;;;5073644;27;45510;-57
2023/03/02 02:06:55;;;;;;;;;52.00;44.00;;;;;;;;5074913;27;45551;-54
2023/03/02 02:09:22;;;;;;;;;55.25;42.50;;;;;;;;5074835;27;45507;-56
2023/03/02 02:11:47;;;;;;;;;44.00;40.00;;;;;;;;5074506;27;45498;-59
2023/03/02 02:14:13;;;;;;;;;50.75;40.25;;;;;;;;5056406;28;45471;-60
2023/03/02 02:16:39;;;;;;;;;41.75;39.50;;;;;;;;5074673;27;45577;-54
2023/03/02 02:19:22;;;;;;;;;51.25;43.00;;;;;;;;5074655;27;45688;-59
2023/03/02 02:21:48;;;;;;;;;51.75;43.50;;;;;;;;5074341;27;46206;-55
2023/03/02 02:24:36;;;;;;;;;51.50;42.25;;;;;;;;5074849;28;45598;-59
2023/03/02 02:27:01;;;;;;;;;49.50;40.25;;;;;;;;5074487;28;45355;-57
2023/03/02 02:29:29;;;;;;;;;48.75;43.00;;;;;;;;5074451;27;45629;-56
2023/03/02 02:32:13;;;;;;;;;48.50;42.00;;;;;;;;5074329;27;45584;-54
2023/03/02 02:34:40;;;;;;;;;48.50;42.75;;;;;;;;5050022;28;45584;-56
2023/03/02 02:37:18;;;;;;;;;46.50;39.25;;;;;;;;5074268;27;46317;-57
2023/03/02 02:39:44;;;;;;;;;48.50;40.75;;;;;;;;5074419;27;45654;-58
2023/03/02 02:42:18;;;;;;;;;48.50;41.75;;;;;;;;5042368;28;45812;-61
2023/03/02 02:44:43;;;;;;;;;47.75;43.50;;;;;;;;5054070;28;45512;-56
2023/03/02 02:47:16;;;;;;;;;56.00;43.75;;;;;;;;5054141;28;45665;-56
2023/03/02 02:49:42;;;;;;;;;40.75;37.00;;;;;;;;5053758;28;45669;-55
2023/03/02 02:52:12;;;;;;;;;49.75;43.00;;;;;;;;5053678;28;45497;-57
2023/03/02 02:54:37;;;;;;;;;47.75;41.00;;;;;;;;5053829;28;45640;-58
2023/03/02 02:57:03;;;;;;;;;49.00;42.25;;;;;;;;5053651;28;45428;-54
2023/03/02 02:59:31;;;;;;;;;51.25;43.25;;;;;;;;5053816;28;45585;-60
2023/03/02 03:01:57;;;;;;;;;55.25;41.50;;;;;;;;5053704;28;46422;-52
2023/03/02 03:04:24;;;;;;;;;44.00;39.75;;;;;;;;5053677;28;46017;-59
2023/03/02 03:06:57;;;;;;;;;51.00;44.75;;;;;;;;5053828;28;45452;-60
2023/03/02 03:09:23;;;;;;;;;48.75;42.50;;;;;;;;5035543;28;45658;-56
2023/03/02 03:11:53;;;;;;;;;50.00;41.25;;;;;;;;5053420;28;45974;-53
2023/03/02 03:14:20;;;;;;;;;50.25;42.00;;;;;;;;5053536;28;45565;-53
2023/03/02 03:16:46;;;;;;;;;54.75;44.75;;;;;;;;5053346;28;45517;-59
2023/03/02 03:19:12;;;;;;;;;46.75;40.75;;;;;;;;5053567;28;45545;-57
2023/03/02 03:21:37;;;;;;;;;52.00;44.20;;;;;;;;5053447;28;46075;-57
2023/03/02 03:24:02;;;;;;;;;57.25;45.75;;;;;;;;5053254;28;45505;-58
2023/03/02 03:26:28;;;;;;;;;46.25;41.75;;;;;;;;5053528;28;45480;-59
2023/03/02 03:28:56;;;;;;;;;43.00;39.25;;;;;;;;5053292;28;45569;-59
2023/03/02 03:31:21;;;;;;;;;49.25;40.75;;;;;;;;5053067;28;45612;-59
2023/03/02 03:33:48;;;;;;;;;52.75;40.75;;;;;;;;5053222;28;45518;-57
2023/03/02 03:36:13;;;;;;;;;49.00;42.75;;;;;;;;5053456;28;46168;-51
2023/03/02 03:38:38;;;;;;;;;57.50;47.50;;;;;;;;5053315;28;45681;-52
2023/03/02 03:41:03;;;;;;;;;54.25;45.25;;;;;;;;5052997;28;46016;-58
2023/03/02 03:43:28;;;;;;;;;50.00;41.00;;;;;;;;5053143;28;45508;-56
2023/03/02 03:45:54;;;;;;;;;48.75;43.00;;;;;;;;5053453;28;45406;-58
2023/03/02 03:48:19;;;;;;;;;45.25;39.50;;;;;;;;5034855;28;45484;-53
2023/03/02 03:50:44;;;;;;;;;54.00;44.75;;;;;;;;5052844;28;45892;-58
2023/03/02 03:53:09;;;;;;;;;56.00;43.00;;;;;;;;5052942;28;45450;-56
2023/03/02 03:55:35;;;;;;;;;44.00;40.75;;;;;;;;5053130;28;45542;-57
2023/03/02 03:58:00;;;;;;;;;54.00;44.25;;;;;;;;5052944;28;45475;-59
2023/03/02 04:00:25;;;;;;;;;54.25;42.50;;;;;;;;5052969;28;45658;-59
2023/03/02 04:02:50;;;;;;;;;47.25;40.25;;;;;;;;5052754;28;45463;-55
2023/03/02 04:05:16;;;;;;;;;53.50;40.25;;;;;;;;5053032;28;45512;-59
2023/03/02 04:07:41;;;;;;;;;52.75;45.50;;;;;;;;5052918;28;45402;-54
2023/03/02 04:10:07;;;;;;;;;54.50;43.50;;;;;;;;5052675;28;45423;-55
2023/03/02 04:12:33;;;;;;;;;48.25;41.75;;;;;;;;5052597;28;45530;-58
2023/03/02 04:14:59;;;;;;;;;50.50;41.50;;;;;;;;5052887;28;45549;-59
2023/03/02 04:17:24;;;;;;;;;48.00;42.00;;;;;;;;5052726;28;45450;-56
2023/03/02 04:19:49;;;;;;;;;51.00;44.00;;;;;;;;5052618;28;46164;-55
2023/03/02 04:22:15;;;;;;;;;54.25;44.25;;;;;;;;5052678;28;45490;-56
2023/03/02 04:24:41;;;;;;;;;56.50;47.00;;;;;;;;5052678;28;45509;-56
2023/03/02 04:27:06;;;;;;;;;51.75;43.50;;;;;;;;5053304;28;45469;-59
2023/03/02 04:29:31;;;;;;;;;52.25;43.25;;;;;;;;5055981;28;45532;-53
2023/03/02 04:31:57;;;;;;;;;50.00;44.00;;;;;;;;5056151;28;45479;-58
2023/03/02 04:34:24;;;;;;;;;46.00;41.50;;;;;;;;5056030;28;45502;-58
2023/03/02 04:36:49;;;;;;;;;50.50;44.25;;;;;;;;5056245;28;45379;-55
2023/03/02 04:39:15;;;;;;;;;52.50;45.50;;;;;;;;5055838;28;46303;-60
2023/03/02 04:41:40;;;;;;;;;52.50;45.25;;;;;;;;5056167;28;45500;-61
2023/03/02 04:44:05;;;;;;;;;51.50;41.25;;;;;;;;5055922;28;45474;-55
2023/03/02 04:46:33;;;;;;;;;57.50;46.75;;;;;;;;5056089;28;45449;-56
2023/03/02 04:48:58;;;;;;;;;54.75;43.75;;;;;;;;5055620;28;45443;-58
2023/03/02 04:51:25;;;;;;;;;56.25;46.75;;;;;;;;5055476;28;45490;-52
2023/03/02 04:53:54;;;;;;;;;54.50;45.00;;;;;;;;5055884;28;45524;-57
2023/03/02 04:56:19;;;;;;;;;58.25;45.75;;;;;;;;5054898;28;46075;-54
2023/03/02 04:58:45;;;;;;;;;61.00;48.50;;;;;;;;5055422;28;46220;-56
2023/03/02 05:01:11;;;;;;;;;50.75;42.75;;;;;;;;5055692;28;45449;-54
2023/03/02 05:03:36;;;;;;;;;53.75;46.50;;;;;;;;5055482;28;45513;-51
2023/03/02 05:06:04;;;;;;;;;57.50;47.00;;;;;;;;5055790;28;45602;-57
2023/03/02 05:08:29;;;;;;;;;56.75;45.00;;;;;;;;5037016;28;45896;-54
2023/03/02 05:10:55;;;;;;;;;60.75;48.00;;;;;;;;5055419;28;45554;-52
2023/03/02 05:13:20;;;;;;;;;57.75;48.00;;;;;;;;5055794;28;45491;-52
2023/03/02 05:15:45;;;;;;;;;56.25;45.25;;;;;;;;5037127;28;45550;-55
2023/03/02 05:18:11;;;;;;;;;57.00;44.75;;;;;;;;5037279;28;47345;-53
2023/03/02 05:20:36;;;;;;;;;57.50;45.75;;;;;;;;5055180;28;45507;-53
2023/03/02 05:23:03;;;;;;;;;49.25;43.25;;;;;;;;5055571;28;46191;-52
2023/03/02 05:25:30;;;;;;;;;60.25;47.00;;;;;;;;5055157;28;45562;-53
2023/03/02 05:27:55;;;;;;;;;47.75;43.75;;;;;;;;5054986;28;45538;-53
2023/03/02 05:30:21;;;;;;;;;56.25;46.00;;;;;;;;5055010;28;45606;-56
2023/03/02 05:32:46;;;;;;;;;53.75;44.50;;;;;;;;5055066;28;45438;-53
2023/03/02 05:35:12;;;;;;;;;60.25;48.50;;;;;;;;5055157;28;45656;-53
2023/03/02 05:37:40;;;;;;;;;55.75;47.25;;;;;;;;5054838;28;46141;-55
2023/03/02 05:40:06;;;;;;;;;56.75;46.50;;;;;;;;5054885;28;45450;-54
2023/03/02 05:42:32;;;;;;;;;46.50;39.75;;;;;;;;5055030;28;45571;-56
2023/03/02 05:44:57;;;;;;;;;48.50;44.00;;;;;;;;5055097;28;45474;-56
2023/03/02 05:47:22;;;;;;;;;56.25;46.00;;;;;;;;5054833;28;45521;-54
2023/03/02 05:49:48;;;;;;;;;56.25;45.75;;;;;;;;5054617;28;45486;-55
2023/03/02 05:52:13;;;;;;;;;56.75;46.00;;;;;;;;5055202;28;45502;-53
2023/03/02 05:54:38;;;;;;;;;58.25;45.50;;;;;;;;5054842;28;45380;-58
2023/03/02 05:57:03;;;;;;;;;56.50;47.50;;;;;;;;5054590;28;45530;-54
2023/03/02 05:59:28;;;;;;;;;56.75;46.50;;;;;;;;5054667;28;45493;-58
2023/03/02 06:01:57;;;;;;;;;57.50;49.25;;;;;;;;5054541;28;45447;-55
2023/03/02 06:04:22;;;;;;;;;59.25;47.50;;;;;;;;5054768;28;45579;-53
2023/03/02 06:06:48;;;;;;;;;54.00;47.00;;;;;;;;5054341;28;45509;-57
2023/03/02 06:09:13;;;;;;;;;54.00;45.75;;;;;;;;5054194;28;45597;-54
2023/03/02 06:11:38;;;;;;;;;60.00;50.00;;;;;;;;5054494;28;45495;-55
2023/03/02 06:14:03;;;;;;;;;57.25;45.00;;;;;;;;5054524;28;45490;-55
2023/03/02 06:16:30;;;;;;;;;58.50;49.00;;;;;;;;5054440;28;46157;-54
2023/03/02 06:18:55;;;;;;;;;56.25;47.50;;;;;;;;5054543;28;45590;-58
2023/03/02 06:21:20;;;;;;;;;60.00;49.25;;;;;;;;5054452;28;45549;-59
2023/03/02 06:23:45;;;;;;;;;60.50;50.75;;;;;;;;5054392;28;45473;-58
2023/03/02 06:26:11;;;;;;;;;58.75;46.50;;;;;;;;5054151;28;46637;-57
2023/03/02 06:28:36;;;;;;;;;56.75;46.75;;;;;;;;5054008;28;45570;-56
2023/03/02 06:31:02;;;;;;;;;60.00;49.00;;;;;;;;5054136;28;45541;-56
2023/03/02 06:33:27;;;;;;;;;57.00;46.25;;;;;;;;5054170;28;45685;-56
2023/03/02 06:35:52;;;;;;;;;57.25;45.00;;;;;;;;5053861;28;45419;-55
2023/03/02 06:38:17;;;;;;;;;58.75;47.50;;;;;;;;5054086;28;45559;-54
2023/03/02 06:40:43;;;;;;;;;54.75;46.25;;;;;;;;5053977;28;45569;-55
2023/03/02 06:43:08;;;;;;;;;60.00;50.00;;;;;;;;5054317;28;45658;-55
2023/03/02 06:45:34;;;;;;;;;61.25;50.00;;;;;;;;5054013;28;46113;-53
2023/03/02 06:47:59;;;;;;;;;60.50;48.75;;;;;;;;5053784;28;45541;-57
2023/03/02 06:50:25;;;;;;;;;58.00;47.25;;;;;;;;5053389;28;45582;-58
2023/03/02 06:52:50;;;;;;;;;62.00;48.75;;;;;;;;5054022;28;45411;-56
2023/03/02 06:55:15;;;;;;;;;58.50;48.75;;;;;;;;5053584;28;46357;-51
2023/03/02 06:57:40;;;;;;;;;60.75;47.50;;;;;;;;5053790;28;45448;-55
2023/03/02 07:00:08;;;;;;;;;63.00;50.25;;;;;;;;5053836;28;45433;-56
2023/03/02 07:02:34;;;;;;;;;58.25;48.50;;;;;;;;5053942;28;45482;-49
2023/03/02 07:04:59;;;;;;;;;56.50;45.00;;;;;;;;5035366;28;45566;-55
2023/03/02 07:07:24;;;;;;;;;64.25;47.75;;;;;;;;5053886;28;45633;-53
2023/03/02 07:09:49;;;;;;;;;58.50;47.50;;;;;;;;5053812;28;45592;-51
2023/03/02 07:12:15;;;;;;;;;58.00;49.00;;;;;;;;5053353;28;45581;-55
2023/03/02 07:14:40;;;;;;;;;53.50;45.75;;;;;;;;5053367;28;45520;-57
2023/03/02 07:17:05;;;;;;;;;58.75;47.75;;;;;;;;5053173;28;45742;-54
2023/03/02 07:19:30;;;;;;;;;60.50;47.25;;;;;;;;5053430;28;45548;-51
2023/03/02 07:21:55;;;;;;;;;58.00;46.50;;;;;;;;5053327;28;45396;-56
2023/03/02 07:24:21;;;;;;;;;67.50;54.50;;;;;;;;5053090;28;45494;-58
2023/03/02 07:26:47;;;;;;;;;55.00;45.75;;;;;;;;5053280;28;45498;-55
2023/03/02 07:29:12;;;;;;;;;59.75;48.75;;;;;;;;5053001;28;45598;-53
2023/03/02 07:31:39;;;;;;;;;58.50;48.25;;;;;;;;5035083;28;45708;-58
2023/03/02 07:34:04;;;;;;;;;59.75;49.75;;;;;;;;5052860;28;45463;-56
2023/03/02 07:36:29;;;;;;;;;60.75;50.00;;;;;;;;5053105;28;45500;-56
2023/03/02 07:38:54;;;;;;;;;54.75;43.50;;;;;;;;5053254;28;45519;-52
2023/03/02 07:41:21;;;;;;;;;58.50;49.00;;;;;;;;5053269;28;45458;-53
2023/03/02 07:43:46;;;;;;;;;63.75;51.00;;;;;;;;5053183;28;45544;-56
2023/03/02 07:46:12;;;;;;;;;64.50;52.75;;;;;;;;5052732;28;45451;-58
2023/03/02 07:48:37;;;;;;;;;61.75;48.50;;;;;;;;5035182;28;45561;-60
2023/03/02 07:51:03;;;;;;;;;61.50;48.75;;;;;;;;5052747;28;45546;-55
2023/03/02 07:53:30;;;;;;;;;63.25;54.25;;;;;;;;5052650;28;46128;-55
2023/03/02 07:55:55;;;;;;;;;57.50;50.00;;;;;;;;5034553;28;45654;-57
2023/03/02 07:58:21;;;;;;;;;67.50;54.25;;;;;;;;5052508;28;45580;-55
2023/03/02 08:00:46;;;;;;;;;64.75;53.75;;;;;;;;5052848;28;45569;-55
2023/03/02 08:03:11;;;;;;;;;60.00;51.00;;;;;;;;5051331;28;45514;-51
2023/03/02 08:05:37;;;;;;;;;63.50;49.50;;;;;;;;5052799;28;45513;-56
2023/03/02 08:08:02;;;;;;;;;62.50;50.25;;;;;;;;5052821;28;46090;-53
2023/03/02 08:10:27;;;;;;;;;62.50;52.00;;;;;;;;5052741;28;45688;-58
2023/03/02 08:12:52;;;;;;;;;65.00;52.75;;;;;;;;5052613;28;46021;-51
2023/03/02 08:15:17;;;;;;;;;63.75;50.50;;;;;;;;5052589;28;45499;-60
2023/03/02 08:17:43;;;;;;;;;63.75;50.50;;;;;;;;5052769;28;45431;-58
2023/03/02 08:20:09;;;;;;;;;66.75;53.50;;;;;;;;5052828;28;45502;-53
2023/03/02 08:22:34;;;;;;;;;64.00;51.75;;;;;;;;5052008;28;45552;-57
2023/03/02 08:24:59;;;;;;;;;58.00;48.75;;;;;;;;5052633;28;45414;-60
2023/03/02 08:27:24;;;;;;;;;54.50;44.50;;;;;;;;5052458;28;45531;-52
2023/03/02 08:29:49;;;;;;;;;66.50;51.50;;;;;;;;5052237;28;45474;-58
2023/03/02 08:32:15;;;;;;;;;58.75;48.00;;;;;;;;5051923;28;46204;-54
2023/03/02 08:34:40;;;;;;;;;60.00;49.50;;;;;;;;5052346;28;45526;-57
2023/03/02 08:37:05;;;;;;;;;60.75;50.50;;;;;;;;5052139;28;45600;-52
2023/03/02 08:39:31;;;;;;;;;61.00;50.00;;;;;;;;5052385;28;45472;-53
2023/03/02 08:41:56;;;;;;;;;64.00;52.50;;;;;;;;5052353;28;45513;-52
2023/03/02 08:44:21;;;;;;;;;65.25;53.00;;;;;;;;5034040;28;45530;-60
2023/03/02 08:46:50;;;;;;;;;60.50;51.00;;;;;;;;5052275;28;45477;-56
2023/03/02 08:49:15;;;;;;;;;61.00;51.75;;;;;;;;5052142;28;45560;-56
2023/03/02 08:51:40;;;;;;;;;63.50;51.00;;;;;;;;5051747;28;45539;-55
2023/03/02 08:54:06;;;;;;;;;58.00;49.25;;;;;;;;5051918;28;45423;-57
2023/03/02 08:56:33;;;;;;;;;65.00;55.25;;;;;;;;5052078;28;45422;-52
2023/03/02 08:58:59;;;;;;;;;63.50;51.00;;;;;;;;5051947;28;45637;-55
2023/03/02 09:01:27;;;;;;;;;59.00;49.75;;;;;;;;5051681;28;45501;-59
2023/03/02 09:03:53;;;;;;;;;66.75;52.50;;;;;;;;5051733;28;45511;-55
2023/03/02 09:06:18;;;;;;;;;63.25;52.25;;;;;;;;5051979;28;45537;-57
2023/03/02 09:08:43;;;;;;;;;65.25;52.50;;;;;;;;5051715;28;45416;-56
2023/03/02 09:11:09;;;;;;;;;60.50;50.00;;;;;;;;5051476;28;45565;-56
2023/03/02 09:13:34;;;;;;;;;59.75;49.00;;;;;;;;5052546;28;45391;-58
2023/03/02 09:16:00;;;;;;;;;57.25;48.75;;;;;;;;5055375;28;45503;-57
2023/03/02 09:18:26;;;;;;;;;62.50;51.25;;;;;;;;5055357;28;45593;-53
2023/03/02 09:20:51;;;;;;;;;66.75;53.00;;;;;;;;5054941;28;45507;-56
2023/03/02 09:23:17;;;;;;;;;58.25;49.50;;;;;;;;5055300;28;45500;-57
2023/03/02 09:25:42;;;;;;;;;66.25;50.75;;;;;;;;5055284;28;45417;-55
2023/03/02 09:28:08;;;;;;;;;64.50;51.50;;;;;;;;5055064;28;45647;-60
2023/03/02 09:30:33;;;;;;;;;63.75;50.50;;;;;;;;5054797;28;46187;-58
2023/03/02 09:32:58;;;;;;;;;63.75;52.50;;;;;;;;5055037;28;45623;-58
2023/03/02 09:35:23;;;;;;;;;63.50;52.00;;;;;;;;5055096;28;45587;-55
2023/03/02 09:37:48;;;;;;;;;59.50;49.25;;;;;;;;5054779;28;45470;-56
2023/03/02 09:40:24;;;;;;;;;65.75;53.75;;;;;;;;5054888;28;45894;-54
2023/03/02 09:43:08;;;;;;;;;64.75;53.25;;;;;;;;5036738;28;45548;-57
2023/03/02 09:45:50;;;;;;;;;71.00;55.75;;;;;;;;5054811;28;45582;-55
2023/03/02 09:48:18;;;;;;;;;67.25;55.00;;;;;;;;5041397;28;45531;-55
2023/03/02 09:50:50;;;;;;;;;64.25;51.25;;;;;;;;5054863;28;46177;-57
2023/03/02 09:53:17;;;;;;;;;67.75;53.75;;;;;;;;5054893;28;45594;-56
2023/03/02 09:55:44;;;;;;;;;64.00;53.00;;;;;;;;5055364;28;45555;-51
2023/03/02 09:58:19;;;;;;;;;67.75;53.75;;;;;;;;5055066;28;45525;-55
2023/03/02 10:00:45;;;;;;;;;68.75;54.00;;;;;;;;5054672;28;46431;-57
2023/03/02 10:03:21;;;;;;;;;64.75;54.00;;;;;;;;5054441;28;45530;-54
2023/03/02 10:05:50;;;;;;;;;62.50;52.00;;;;;;;;5041254;28;45509;-57
2023/03/02 10:08:16;;;;;;;;;63.00;50.50;;;;;;;;5054472;28;45642;-53
2023/03/02 10:10:53;;;;;;;;;61.50;51.50;;;;;;;;5054176;28;46241;-53
2023/03/02 10:13:26;;;;;;;;;64.75;53.50;;;;;;;;5054453;28;45525;-57
2023/03/02 10:15:51;;;;;;;;;63.50;50.75;;;;;;;;5054382;28;45512;-60
2023/03/02 10:18:22;;;;;;;;;66.50;53.75;;;;;;;;5054357;28;45553;-57
2023/03/02 10:20:48;;;;;;;;;63.25;50.25;;;;;;;;5054130;28;46131;-57
2023/03/02 10:23:16;;;;;;;;;62.75;52.25;;;;;;;;5054520;28;45439;-52
2023/03/02 10:25:47;;;;;;;;;59.50;49.00;;;;;;;;5035671;28;45589;-53
2023/03/02 10:28:20;;;;;;;;;67.00;51.75;;;;;;;;5054308;28;45423;-53
2023/03/02 10:30:49;;;;;;;;;63.25;51.75;;;;;;;;5053925;28;45562;-53
2023/03/02 10:33:17;;;;;;;;;62.00;51.00;;;;;;;;5054136;28;45478;-57
2023/03/02 10:35:47;;;;;;;;;61.50;51.00;;;;;;;;5054090;28;45518;-58
2023/03/02 10:38:12;;;;;;;;;60.25;47.75;;;;;;;;5054430;28;45519;-53
2023/03/02 10:40:39;;;;;;;;;60.00;48.75;;;;;;;;5054143;28;45450;-53
2023/03/02 10:43:06;;;;;;;;;61.50;49.00;;;;;;;;5054035;28;45597;-53
2023/03/02 10:45:31;;;;;;;;;61.00;51.50;;;;;;;;5054009;28;45451;-56
2023/03/02 10:48:03;;;;;;;;;55.50;47.50;;;;;;;;5054037;28;45668;-56
2023/03/02 10:50:31;;;;;;;;;62.25;49.75;;;;;;;;5053810;28;46749;-54
2023/03/02 10:52:57;;;;;;;;;62.50;51.00;;;;;;;;5054004;28;45495;-55
2023/03/02 10:55:22;;;;;;;;;55.75;46.50;;;;;;;;5053650;28;45508;-56
2023/03/02 10:58:10;;;;;;;;;57.75;48.75;;;;;;;;5053786;28;45498;-55
2023/03/02 11:00:36;;;;;;;;;56.75;48.00;;;;;;;;5052387;28;46426;-50
2023/03/02 11:03:03;;;;;;;;;59.00;49.25;;;;;;;;5053765;28;45450;-55
2023/03/02 11:05:33;;;;;;;;;59.75;50.25;;;;;;;;5053653;28;45419;-56
2023/03/02 11:08:00;;;;;;;;;64.00;51.75;;;;;;;;5053622;28;45435;-52
2023/03/02 11:10:28;;;;;;;;;61.75;50.25;;;;;;;;5053396;28;45590;-52
2023/03/02 11:12:53;;;;;;;;;61.25;50.25;;;;;;;;5053664;28;45529;-60
2023/03/02 11:15:25;;;;;;;;;60.50;50.50;;;;;;;;5053553;28;45504;-52
2023/03/02 11:17:59;;;;;;;;;61.00;49.25;;;;;;;;5053544;28;45581;-57
2023/03/02 11:20:27;;;;;;;;;62.00;50.75;;;;;;;;5053148;28;45528;-52
2023/03/02 11:22:55;;;;;;;;;58.00;49.50;;;;;;;;5053382;28;45565;-54
2023/03/02 11:25:30;;;;;;;;;58.50;48.50;;;;;;;;5053448;28;45518;-52
2023/03/02 11:28:00;;;;;;;;;61.00;48.25;;;;;;;;5040018;28;45613;-56
2023/03/02 11:30:28;;;;;;;;;62.00;50.25;;;;;;;;5053057;28;46007;-56
2023/03/02 11:33:02;;;;;;;;;58.75;47.25;;;;;;;;5052941;28;45508;-57
2023/03/02 11:35:31;;;;;;;;;68.00;54.00;;;;;;;;5053159;28;45537;-55
2023/03/02 11:38:00;;;;;;;;;62.25;50.25;;;;;;;;5052981;28;45505;-53
2023/03/02 11:40:39;;;;;;;;;62.75;50.00;;;;;;;;5052968;28;45501;-55
2023/03/02 11:43:04;;;;;;;;;61.50;49.50;;;;;;;;5052812;28;45801;-52
2023/03/02 11:45:33;;;;;;;;;64.25;52.50;;;;;;;;5052992;28;45496;-58
2023/03/02 11:48:02;;;;;;;;;60.25;50.50;;;;;;;;5052747;28;45605;-55
2023/03/02 11:50:27;;;;;;;;;62.25;52.00;;;;;;;;5034737;28;46642;-51
2023/03/02 11:53:00;;;;;;;;;58.50;48.50;;;;;;;;5052669;28;45496;-51
2023/03/02 11:55:27;;;;;;;;;58.75;49.00;;;;;;;;5052473;28;45563;-54
2023/03/02 11:57:54;;;;;;;;;57.75;47.25;;;;;;;;5052935;28;45554;-57
2023/03/02 12:00:35;;;;;;;;;57.75;49.25;;;;;;;;5052348;28;45490;-59
2023/03/02 12:03:04;;;;;;;;;61.00;48.50;;;;;;;;5052639;28;45502;-57
2023/03/02 12:05:34;;;;;;;;;56.25;47.50;;;;;;;;5052483;28;45463;-58
2023/03/02 12:08:00;;;;;;;;;63.50;50.00;;;;;;;;5052465;28;45528;-52
2023/03/02 12:10:31;;;;;;;;;61.00;48.00;;;;;;;;5052246;28;45435;-54
2023/03/02 12:13:11;;;;;;;;;59.50;47.50;;;;;;;;5052568;28;45533;-55
2023/03/02 12:15:38;;;;;;;;;59.75;50.25;;;;;;;;5052290;28;45503;-55
2023/03/02 12:18:19;;;;;;;;;57.75;48.25;;;;;;;;5052594;28;45634;-54
2023/03/02 12:20:44;;;;;;;;;54.75;46.00;;;;;;;;5052275;28;45439;-56
2023/03/02 12:23:20;;;;;;;;;62.25;49.75;;;;;;;;5052357;28;45447;-52
2023/03/02 12:25:50;;;;;;;;;54.50;45.75;;;;;;;;5052252;28;45563;-57
2023/03/02 12:28:25;;;;;;;;;54.75;44.75;;;;;;;;5052131;28;45562;-56
2023/03/02 12:31:08;;;;;;;;;55.00;43.75;;;;;;;;5051993;28;46518;-54
2023/03/02 12:33:44;;;;;;;;;54.75;46.00;;;;;;;;5052276;28;45514;-60
2023/03/02 12:36:12;;;;;;;;;60.00;50.00;;;;;;;;5051920;28;45474;-57
2023/03/02 12:38:38;;;;;;;;;58.00;47.75;;;;;;;;5052061;28;45482;-56
2023/03/02 12:41:22;;;;;;;;;56.50;46.50;;;;;;;;5051996;28;45504;-58
2023/03/02 12:44:12;;;;;;;;;59.75;49.00;;;;;;;;5052168;28;45476;-54
2023/03/02 12:46:39;;;;;;;;;65.25;50.50;;;;;;;;5039092;28;45512;-50
2023/03/02 12:49:13;;;;;;;;;57.75;48.00;;;;;;;;5054143;28;45558;-57
2023/03/02 12:51:50;;;;;;;;;61.75;48.00;;;;;;;;5055354;28;45494;-57
2023/03/02 12:54:17;;;;;;;;;57.00;48.25;;;;;;;;5055455;28;45549;-59
2023/03/02 12:56:43;;;;;;;;;63.00;47.00;;;;;;;;5037977;28;45543;-52
2023/03/02 12:59:21;;;;;;;;;54.75;46.50;;;;;;;;5057582;28;45489;-55
2023/03/02 13:01:47;;;;;;;;;65.75;51.75;;;;;;;;5054676;28;45444;-53
2023/03/02 13:04:19;;;;;;;;;62.25;47.25;;;;;;;;5055525;28;45455;-57
2023/03/02 13:06:45;;;;;;;;;56.75;47.50;;;;;;;;5055773;28;45498;-54
2023/03/02 13:09:12;;;;;;;;;56.50;48.50;;;;;;;;5056109;28;45451;-58
2023/03/02 13:11:38;;;;;;;;;63.00;49.75;;;;;;;;5055908;28;45620;-52
2023/03/02 13:14:16;;;;;;;;;59.50;49.50;;;;;;;;5056336;28;45519;-57
2023/03/02 13:16:42;;;;;;;;;57.00;47.00;;;;;;;;5057403;28;45550;-57
2023/03/02 13:19:13;;;;;;;;;64.00;51.00;;;;;;;;5055431;28;44915;-57
2023/03/02 13:21:39;;;;;;;;;65.25;52.25;;;;;;;;5055804;28;45476;-61
2023/03/02 13:24:23;;;;;;;;;53.25;46.00;;;;;;;;5056403;28;45573;-56
2023/03/02 13:26:54;;;;;;;;;64.25;52.50;;;;;;;;5056767;28;45481;-54
2023/03/02 13:29:20;;;;;;;;;58.25;49.50;;;;;;;;5055740;28;44808;-58
2023/03/02 13:31:45;;;;;;;;;60.75;50.00;;;;;;;;5055956;28;45979;-59
2023/03/02 13:34:25;;;;;;;;;61.25;50.25;;;;;;;;5054887;28;45518;-54
2023/03/02 13:36:50;;;;;;;;;63.25;49.25;;;;;;;;5055354;28;45563;-55
2023/03/02 13:39:20;;;;;;;;;61.00;50.00;;;;;;;;5055110;28;45494;-57
2023/03/02 13:41:56;;;;;;;;;55.25;45.00;;;;;;;;5055373;28;46184;-58
2023/03/02 13:44:26;;;;;;;;;61.50;48.00;;;;;;;;5056423;28;45494;-56
2023/03/02 13:46:51;;;;;;;;;60.00;48.25;;;;;;;;5056232;28;45548;-57
2023/03/02 13:49:33;;;;;;;;;57.50;47.25;;;;;;;;5056753;28;45507;-52
2023/03/02 13:52:01;;;;;;;;;62.75;51.00;;;;;;;;5056347;28;45419;-58
2023/03/02 13:54:28;;;;;;;;;60.25;49.25;;;;;;;;5056390;28;45444;-60
2023/03/02 13:56:55;;;;;;;;;58.25;48.75;;;;;;;;5055252;28;45541;-55
2023/03/02 13:59:21;;;;;;;;;55.75;46.75;;;;;;;;5055371;28;45481;-57
2023/03/02 14:01:46;;;;;;;;;59.50;48.50;;;;;;;;5056192;28;45438;-53
2023/03/02 14:04:12;;;;;;;;;58.75;48.25;;;;;;;;5054518;28;45622;-50
2023/03/02 14:06:38;;;;;;;;;58.00;48.50;;;;;;;;5054815;28;44851;-59
2023/03/02 14:09:03;;;;;;;;;59.75;49.00;;;;;;;;5054598;28;45522;-52
2023/03/02 14:11:34;;;;;;;;;57.50;48.00;;;;;;;;5054623;28;45473;-55
2023/03/02 14:14:02;;;;;;;;;59.50;48.50;;;;;;;;5055145;28;45476;-51
2023/03/02 14:16:27;;;;;;;;;60.00;47.50;;;;;;;;5054899;28;45494;-56
2023/03/02 14:18:52;;;;;;;;;57.75;48.00;;;;;;;;5054299;28;45566;-58